CheckWX is a tool to help pilots better visualize weather data.  It is not intended as a substitute for an official pre-flight weather briefing.

08:53:53 UTC

KORD METAR
Chicago O'hare International Airport
Chicago, Illinois, USA
Current

1 hour ago

KORD 060751Z 26007KT 10SM FEW230 BKN250 05/02 A2995 RMK AO2 SLP144 T00500022
Observed
Dec-6 @ 07:51 UTC
Wind
  • 260° at 7 KTS
Visibility
10 SM
Flight Rules
VFR
Cloud Levels
  • Few at 23,000' AGL
  • Broken at 25,000' AGL
Temperature
C / 41°F
Dewpoint
C / 36°F
Humidity
81%
Altimeter
29.95" Hg
Pressure
1014.22 hPa
Previous

2 hours ago

KORD 060651Z 25007KT 10SM FEW160 BKN250 05/02 A2992 RMK AO2 SLP134 T00500022
Observed
Dec-6 @ 06:51 UTC
Wind
  • 250° at 7 KTS
Visibility
10 SM
Flight Rules
VFR
Cloud Levels
  • Few at 16,000' AGL
  • Broken at 25,000' AGL
Temperature
C / 41°F
Dewpoint
C / 36°F
Humidity
81%
Altimeter
29.92" Hg
Pressure
1013.22 hPa
Previous

3 hours ago

KORD 060551Z 22008KT 10SM BKN140 BKN250 06/02 A2992 RMK AO2 SLP135 T00560022 10067 20050 400721028 58001
Observed
Dec-6 @ 05:51 UTC
Wind
  • 220° at 8 KTS
Visibility
10 SM
Flight Rules
VFR
Cloud Levels
  • Broken at 14,000' AGL
  • Broken at 25,000' AGL
Temperature
C / 43°F
Dewpoint
C / 36°F
Humidity
76%
Altimeter
29.92" Hg
Pressure
1013.22 hPa